createdAt,value
2018-10-09T00:01:33.477Z,37.60
2018-10-09T00:04:03.688Z,49.27
2018-10-09T00:06:33.987Z,42.10
2018-10-09T00:09:05.129Z,45.13
2018-10-09T00:11:35.456Z,53.67
2018-10-09T00:14:05.977Z,55.80
2018-10-09T00:16:36.262Z,58.33
2018-10-09T00:19:06.556Z,76.13
2018-10-09T00:21:36.811Z,154.60
2018-10-09T00:24:07.237Z,43.13
2018-10-09T00:26:37.458Z,38.83
2018-10-09T00:29:07.644Z,36.20
2018-10-09T00:31:37.893Z,42.83
2018-10-09T00:34:08.159Z,46.33
2018-10-09T00:36:38.348Z,47.00
2018-10-09T00:39:09.851Z,41.00
2018-10-09T00:41:40.051Z,40.50
2018-10-09T00:44:10.220Z,39.43
2018-10-09T00:46:40.488Z,41.13
2018-10-09T00:49:10.690Z,39.40
2018-10-09T00:51:40.869Z,44.20
2018-10-09T00:54:11.131Z,45.43
2018-10-09T00:56:41.397Z,49.13
2018-10-09T00:59:11.862Z,41.83
2018-10-09T01:01:42.066Z,87.87
2018-10-09T01:04:12.508Z,478.27
2018-10-09T01:06:42.748Z,429.97
2018-10-09T01:09:13.029Z,215.17
2018-10-09T01:11:43.232Z,388.27
2018-10-09T01:14:13.433Z,106.47
2018-10-09T01:16:43.645Z,480.47
2018-10-09T01:19:13.828Z,333.10
2018-10-09T01:21:44.112Z,170.63
2018-10-09T01:24:14.225Z,927.77
2018-10-09T01:26:44.460Z,596.60
2018-10-09T01:29:15.147Z,829.13
2018-10-09T01:31:45.392Z,518.43
2018-10-09T01:34:15.552Z,337.93
2018-10-09T01:36:46.124Z,314.20
2018-10-09T01:39:16.474Z,591.13
2018-10-09T01:41:46.806Z,442.03
2018-10-09T01:44:16.965Z,970.43
2018-10-09T01:46:47.343Z,766.33
2018-10-09T01:49:17.543Z,670.00
2018-10-09T01:51:47.900Z,1088.90
2018-10-09T01:54:18.126Z,524.13
2018-10-09T01:56:48.456Z,678.87
2018-10-09T01:59:18.576Z,760.33
2018-10-09T02:01:48.850Z,453.17
2018-10-09T02:04:19.024Z,929.77
2018-10-09T02:06:49.406Z,810.13
2018-10-09T02:09:19.588Z,220.87
2018-10-09T02:11:49.824Z,653.30
2018-10-09T02:14:20.005Z,873.90
2018-10-09T02:16:50.292Z,713.30
2018-10-09T02:19:20.544Z,496.53
2018-10-09T02:21:50.816Z,909.97
2018-10-09T02:24:21.015Z,293.60
2018-10-09T02:26:51.232Z,528.70
2018-10-09T02:29:21.432Z,765.20
2018-10-09T02:31:51.632Z,545.67
2018-10-09T02:34:21.768Z,755.17
2018-10-09T02:36:51.972Z,745.93
2018-10-09T02:39:22.132Z,636.30
2018-10-09T02:41:52.302Z,637.73
2018-10-09T02:44:22.471Z,390.57
2018-10-09T02:46:52.652Z,183.40
2018-10-09T02:49:22.807Z,455.93
2018-10-09T02:51:53.045Z,637.43
2018-10-09T02:54:23.204Z,323.23
2018-10-09T02:56:53.365Z,120.50
2018-10-09T02:59:23.522Z,331.90
2018-10-09T03:01:53.791Z,404.73
2018-10-09T03:04:23.975Z,195.93
2018-10-09T03:06:54.190Z,288.43
2018-10-09T03:09:24.340Z,851.27
2018-10-09T03:11:54.538Z,576.87
2018-10-09T03:14:24.776Z,404.10
2018-10-09T03:16:55.019Z,256.73
2018-10-09T03:19:25.196Z,190.60
2018-10-09T03:21:55.878Z,135.37
2018-10-09T03:24:26.243Z,876.93
2018-10-09T03:26:56.477Z,382.80
2018-10-09T03:29:26.709Z,905.70
2018-10-09T03:31:56.983Z,1066.83
2018-10-09T03:34:27.248Z,197.53
2018-10-09T03:36:57.467Z,316.53
2018-10-09T03:39:27.743Z,773.73
2018-10-09T03:41:58.013Z,372.07
2018-10-09T03:44:28.173Z,362.00
2018-10-09T03:47:01.279Z,595.63
2018-10-09T03:49:31.601Z,739.00
2018-10-09T03:52:01.784Z,765.17
2018-10-09T03:54:31.933Z,750.43
2018-10-09T03:57:02.189Z,863.50
2018-10-09T03:59:32.361Z,404.70
2018-10-09T04:02:02.567Z,775.23
2018-10-09T04:04:32.769Z,451.07
2018-10-09T04:07:03.053Z,419.07
2018-10-09T04:09:33.296Z,746.43
2018-10-09T04:12:03.597Z,503.33
2018-10-09T04:14:33.725Z,549.90
2018-10-09T04:17:03.941Z,595.60
2018-10-09T04:19:34.192Z,349.67
2018-10-09T04:22:04.542Z,345.03
2018-10-09T04:24:34.808Z,283.17
2018-10-09T04:27:05.021Z,462.73
2018-10-09T04:29:35.311Z,299.10
2018-10-09T04:32:06.704Z,481.10
2018-10-09T04:34:37.423Z,614.47
2018-10-09T04:37:07.693Z,626.33
2018-10-09T04:39:37.888Z,568.37
2018-10-09T04:42:08.120Z,409.53
2018-10-09T04:44:38.270Z,385.97
2018-10-09T04:47:08.520Z,537.77
2018-10-09T04:49:38.752Z,666.73
2018-10-09T04:52:09.010Z,827.73
2018-10-09T04:54:39.128Z,677.57
2018-10-09T04:57:09.380Z,264.27
2018-10-09T04:59:39.590Z,451.47
2018-10-09T05:02:09.934Z,840.63
2018-10-09T05:04:40.214Z,615.40
2018-10-09T05:07:10.340Z,529.33
2018-10-09T05:09:40.528Z,537.50
2018-10-09T05:12:10.837Z,887.93
2018-10-09T05:14:42.077Z,749.67
2018-10-09T05:17:12.450Z,516.53
2018-10-09T05:19:42.624Z,636.03
2018-10-09T05:22:13.009Z,721.87
2018-10-09T05:24:43.413Z,737.13
2018-10-09T05:27:14.008Z,659.53
2018-10-09T05:29:44.532Z,720.50
2018-10-09T05:32:15.248Z,306.10
2018-10-09T05:34:45.488Z,694.27
2018-10-09T05:37:15.672Z,696.57
2018-10-09T05:39:49.196Z,532.13
2018-10-09T05:42:19.744Z,492.97
2018-10-09T05:44:50.152Z,431.30
2018-10-09T05:47:20.782Z,780.53
2018-10-09T05:49:50.958Z,680.17
2018-10-09T05:52:21.443Z,254.80
2018-10-09T05:54:51.967Z,639.73
2018-10-09T05:57:22.418Z,332.03
2018-10-09T05:59:52.841Z,515.13
2018-10-09T06:02:23.192Z,547.27
2018-10-09T06:04:53.424Z,538.73
2018-10-09T06:07:29.997Z,446.77
2018-10-09T06:10:00.228Z,624.23
2018-10-09T06:12:30.452Z,604.00
2018-10-09T06:15:00.608Z,787.77
2018-10-09T06:17:31.026Z,279.67
2018-10-09T06:20:01.242Z,322.67
2018-10-09T06:22:31.438Z,346.67
2018-10-09T06:25:01.633Z,509.43
2018-10-09T06:27:31.908Z,540.87
2018-10-09T06:30:02.114Z,488.03
2018-10-09T06:32:32.284Z,429.23
2018-10-09T06:35:02.902Z,424.40
2018-10-09T06:37:33.138Z,148.77
2018-10-09T06:40:03.380Z,163.00
2018-10-09T06:42:33.677Z,118.37
2018-10-09T06:45:04.036Z,209.10
2018-10-09T06:47:34.394Z,138.40
2018-10-09T06:50:04.714Z,108.17
2018-10-09T06:52:34.962Z,79.00
2018-10-09T06:55:05.322Z,143.40
2018-10-09T06:57:36.080Z,203.60
2018-10-09T07:00:06.549Z,249.33
2018-10-09T07:02:37.132Z,85.20
2018-10-09T07:05:07.575Z,126.67
2018-10-09T07:07:37.946Z,88.07
2018-10-09T07:10:08.243Z,190.50
2018-10-09T07:12:38.522Z,254.67
2018-10-09T07:15:09.026Z,54.77
2018-10-09T07:17:39.243Z,59.07
2018-10-09T07:20:09.458Z,214.37
2018-10-09T07:22:39.664Z,41.97
2018-10-09T07:25:09.860Z,129.10
2018-10-09T07:27:40.137Z,213.63
2018-10-09T07:30:10.838Z,219.00
2018-10-09T07:32:41.048Z,76.17
2018-10-09T07:35:11.723Z,73.50
2018-10-09T07:37:42.405Z,80.10
2018-10-09T07:40:12.712Z,38.67
2018-10-09T07:42:42.974Z,34.80
2018-10-09T07:45:13.204Z,36.03
2018-10-09T07:47:43.438Z,42.03
2018-10-09T07:50:13.622Z,32.27
2018-10-09T07:52:43.800Z,27.60
2018-10-09T07:55:13.978Z,26.47
2018-10-09T07:57:44.190Z,28.37
2018-10-09T08:00:14.368Z,31.70
2018-10-09T08:02:44.590Z,28.90
2018-10-09T08:05:14.792Z,26.57
2018-10-09T08:07:45.070Z,33.13
2018-10-09T08:10:15.302Z,29.77
2018-10-09T08:12:45.500Z,30.43
2018-10-09T08:15:15.680Z,31.97
2018-10-09T08:17:45.878Z,29.03
2018-10-09T08:20:16.226Z,28.33
2018-10-09T08:22:46.744Z,26.23
2018-10-09T08:25:16.850Z,26.20
2018-10-09T08:27:47.206Z,26.30
2018-10-09T08:30:17.426Z,25.97
2018-10-09T08:32:47.861Z,24.43
2018-10-09T08:35:18.241Z,23.97
2018-10-09T08:37:48.595Z,22.90
2018-10-09T08:40:18.838Z,23.83
2018-10-09T08:42:49.004Z,23.63
2018-10-09T08:45:19.245Z,26.43
2018-10-09T08:47:49.413Z,24.43
2018-10-09T08:50:19.642Z,24.03
2018-10-09T08:52:50.062Z,26.60
2018-10-09T08:55:20.573Z,25.23
2018-10-09T08:57:50.777Z,27.40
2018-10-09T09:00:20.882Z,27.53
2018-10-09T09:02:51.054Z,25.77
2018-10-09T09:05:21.304Z,26.47
2018-10-09T09:07:51.879Z,24.50
2018-10-09T09:10:22.219Z,27.87
2018-10-09T09:12:52.465Z,27.33
2018-10-09T09:15:22.736Z,27.53
2018-10-09T09:17:53.134Z,26.93
2018-10-09T09:20:23.393Z,25.60
2018-10-09T09:22:53.648Z,28.40
2018-10-09T09:25:23.803Z,27.73
2018-10-09T09:27:54.181Z,26.60
2018-10-09T09:30:24.396Z,26.77
2018-10-09T09:32:54.680Z,29.50
2018-10-09T09:35:24.979Z,26.43
2018-10-09T09:37:55.286Z,29.20
2018-10-09T09:40:25.517Z,28.80
2018-10-09T09:42:55.850Z,29.47
2018-10-09T09:45:26.150Z,28.13
2018-10-09T09:47:56.436Z,29.00
2018-10-09T09:50:26.676Z,28.23
2018-10-09T09:52:56.972Z,28.80
2018-10-09T09:55:27.514Z,28.73
2018-10-09T09:57:57.871Z,28.47
2018-10-09T10:00:33.323Z,27.93
2018-10-09T10:03:03.564Z,30.37
2018-10-09T10:05:33.761Z,26.87
2018-10-09T10:08:03.971Z,25.77
2018-10-09T10:10:34.315Z,26.27
2018-10-09T10:13:04.603Z,31.60
2018-10-09T10:15:34.980Z,28.50
2018-10-09T10:18:05.352Z,29.07
2018-10-09T10:20:35.697Z,26.00
2018-10-09T10:23:06.127Z,27.67
2018-10-09T10:25:36.749Z,26.17
2018-10-09T10:28:07.634Z,27.73
2018-10-09T10:30:38.023Z,25.83
2018-10-09T10:33:08.256Z,25.62
2018-10-09T10:35:38.591Z,25.33
2018-10-09T10:38:08.949Z,25.80
2018-10-09T10:40:39.252Z,28.27
2018-10-09T10:43:09.737Z,25.08
2018-10-09T10:45:40.941Z,25.35
2018-10-09T10:48:11.255Z,25.25
2018-10-09T10:50:41.560Z,25.85
2018-10-09T10:53:11.845Z,25.80
2018-10-09T10:55:42.051Z,25.35
2018-10-09T10:58:12.423Z,25.35
2018-10-09T11:00:42.803Z,29.77
2018-10-09T11:03:13.089Z,27.52
2018-10-09T11:05:43.407Z,29.65
2018-10-09T11:08:13.767Z,27.07
2018-10-09T11:10:44.222Z,28.50
2018-10-09T11:13:17.986Z,36.83
2018-10-09T11:15:48.337Z,28.02
2018-10-09T11:18:18.700Z,26.52
2018-10-09T11:20:49.164Z,25.27
2018-10-09T11:23:19.462Z,28.50
2018-10-09T11:25:49.759Z,24.50
2018-10-09T11:28:20.052Z,25.92
2018-10-09T11:30:50.322Z,23.20
2018-10-09T11:33:20.644Z,22.95
2018-10-09T11:35:50.882Z,24.10
2018-10-09T11:38:21.216Z,24.85
2018-10-09T11:40:51.593Z,25.70
2018-10-09T11:43:21.886Z,24.02
2018-10-09T11:45:52.256Z,24.20
2018-10-09T11:48:22.585Z,23.52
2018-10-09T11:50:52.983Z,23.25
2018-10-09T11:53:23.610Z,24.18
2018-10-09T11:55:54.149Z,22.62
2018-10-09T11:58:29.422Z,23.12
2018-10-09T12:01:02.594Z,22.27
2018-10-09T12:06:51.596Z,23.85
2018-10-09T12:09:22.120Z,22.20
2018-10-09T12:11:52.528Z,21.42
2018-10-09T12:14:23.144Z,23.62
2018-10-09T12:16:54.104Z,20.32
2018-10-09T12:19:24.570Z,21.17
2018-10-09T12:21:54.978Z,18.92
2018-10-09T12:24:25.384Z,17.92
2018-10-09T12:26:55.753Z,17.75
2018-10-09T12:29:26.057Z,16.93
2018-10-09T12:31:56.410Z,16.85
2018-10-09T12:34:26.685Z,19.30
2018-10-09T12:36:56.931Z,16.70
2018-10-09T12:39:27.690Z,19.25
2018-10-09T12:41:57.899Z,22.48
2018-10-09T12:44:28.381Z,18.65
2018-10-09T12:46:58.668Z,18.75
2018-10-09T12:49:28.911Z,13.98
2018-10-09T12:51:59.219Z,13.40
2018-10-09T12:54:29.539Z,14.20
2018-10-09T12:56:59.912Z,12.47
2018-10-09T12:59:30.304Z,14.47
2018-10-09T13:02:00.601Z,14.47
2018-10-09T13:04:31.007Z,13.38
2018-10-09T13:07:01.506Z,12.70
2018-10-09T13:09:31.830Z,14.20
2018-10-09T13:12:02.193Z,12.95
2018-10-09T13:14:32.584Z,14.43
2018-10-09T13:17:02.961Z,12.03
2018-10-09T13:19:33.294Z,12.68
2018-10-09T13:22:03.886Z,17.87
2018-10-09T13:24:33.879Z,14.07
2018-10-09T13:27:04.304Z,13.13
2018-10-09T13:29:34.648Z,14.87
2018-10-09T13:32:04.999Z,16.02
2018-10-09T13:34:35.448Z,11.40
2018-10-09T13:37:05.849Z,12.15
2018-10-09T13:39:36.399Z,11.60
2018-10-09T13:42:06.821Z,12.25
2018-10-09T13:44:37.265Z,11.75
2018-10-09T13:47:07.635Z,11.48
2018-10-09T13:49:41.190Z,13.48
2018-10-09T13:52:11.547Z,11.53
2018-10-09T13:54:41.901Z,12.28
2018-10-09T13:57:12.185Z,13.20
2018-10-09T13:59:44.402Z,11.68
2018-10-09T14:02:14.704Z,10.72
2018-10-09T14:04:48.136Z,11.50
2018-10-09T14:07:18.509Z,13.62
2018-10-09T14:09:48.907Z,12.45
2018-10-09T14:12:22.547Z,9.05
2018-10-09T14:14:52.992Z,10.08
2018-10-09T14:17:23.391Z,11.25
2018-10-09T14:19:53.746Z,11.88
2018-10-09T14:22:24.023Z,11.53
2018-10-09T14:24:54.356Z,8.40
2018-10-09T14:27:24.645Z,10.45
2018-10-09T14:29:54.964Z,7.12
2018-10-09T14:32:25.277Z,6.67
2018-10-09T14:34:55.702Z,6.80
2018-10-09T14:37:26.062Z,7.53
2018-10-09T14:39:57.586Z,6.28
2018-10-09T14:42:27.968Z,7.17
2018-10-09T14:44:58.204Z,7.37
2018-10-09T14:47:28.415Z,6.60
2018-10-09T14:49:59.082Z,7.37
2018-10-09T14:52:29.468Z,6.45
2018-10-09T14:54:59.828Z,6.78
2018-10-09T14:57:30.136Z,7.83
2018-10-09T15:00:00.450Z,6.15
2018-10-09T15:02:30.717Z,6.08
2018-10-09T15:05:01.028Z,6.12
2018-10-09T15:07:31.342Z,7.00
2018-10-09T15:10:01.749Z,8.58
2018-10-09T15:12:32.020Z,5.78
2018-10-09T15:15:02.757Z,8.40
2018-10-09T15:17:33.177Z,5.90
2018-10-09T15:20:03.505Z,5.87
2018-10-09T15:22:33.854Z,6.35
2018-10-09T15:25:04.765Z,6.70
2018-10-09T15:27:41.327Z,8.30
2018-10-09T15:30:11.734Z,6.85
2018-10-09T15:32:42.182Z,6.75
2018-10-09T15:35:12.492Z,5.92
2018-10-09T15:37:43.661Z,6.00
2018-10-09T15:40:14.230Z,6.33
2018-10-09T15:42:44.589Z,7.03
2018-10-09T15:45:14.939Z,6.97
2018-10-09T15:47:45.160Z,7.43
2018-10-09T15:50:15.506Z,6.43
2018-10-09T15:52:45.884Z,8.03
2018-10-09T15:55:16.279Z,9.63
2018-10-09T15:57:46.638Z,7.37
2018-10-09T16:00:16.912Z,7.03
2018-10-09T16:02:47.346Z,7.63
2018-10-09T16:05:17.589Z,7.83
2018-10-09T16:07:47.858Z,8.97
2018-10-09T16:10:18.134Z,9.97
2018-10-09T16:12:48.460Z,11.07
2018-10-09T16:15:18.756Z,11.27
2018-10-09T16:17:49.082Z,11.10
2018-10-09T16:20:19.346Z,12.33
2018-10-09T16:22:49.940Z,11.33
2018-10-09T16:25:20.195Z,11.93
2018-10-09T16:27:50.426Z,12.37
2018-10-09T16:30:20.665Z,12.10
2018-10-09T16:32:50.991Z,12.93
2018-10-09T16:35:21.129Z,13.17
2018-10-09T16:37:51.395Z,13.33
2018-10-09T16:40:21.941Z,12.93
2018-10-09T16:42:52.272Z,12.63
2018-10-09T16:45:22.577Z,12.13
2018-10-09T16:47:56.109Z,13.30
2018-10-09T16:50:27.693Z,12.90
2018-10-09T16:52:58.586Z,13.63
2018-10-09T16:55:30.125Z,14.07
2018-10-09T16:58:00.406Z,13.93
2018-10-09T17:00:30.749Z,14.83
2018-10-09T17:03:01.108Z,29.47
2018-10-09T17:05:31.297Z,22.97
2018-10-09T17:08:01.542Z,16.70
2018-10-09T17:10:31.797Z,17.30
2018-10-09T17:13:02.081Z,18.47
2018-10-09T17:15:32.412Z,15.87
2018-10-09T17:18:02.831Z,17.07
2018-10-09T17:20:33.071Z,15.63
2018-10-09T17:23:03.230Z,16.87
2018-10-09T17:25:33.525Z,14.40
2018-10-09T17:28:03.874Z,16.77
2018-10-09T17:30:34.067Z,15.23
2018-10-09T17:33:05.748Z,18.07
2018-10-09T17:35:35.938Z,16.47
2018-10-09T17:38:06.329Z,17.53
2018-10-09T17:40:36.565Z,17.27
2018-10-09T17:43:06.853Z,16.53
2018-10-09T17:45:37.082Z,16.30
2018-10-09T17:48:07.278Z,17.27
2018-10-09T17:50:37.529Z,17.10
2018-10-09T17:53:08.072Z,16.60
2018-10-09T17:55:38.367Z,16.80
2018-10-09T17:58:08.641Z,16.67
2018-10-09T18:00:38.911Z,17.33
2018-10-09T18:03:09.163Z,17.60
2018-10-09T18:05:39.455Z,20.83
2018-10-09T18:08:09.555Z,19.00
2018-10-09T18:10:39.808Z,18.73
2018-10-09T18:13:10.044Z,17.13
2018-10-09T18:15:40.267Z,20.10
2018-10-09T18:18:10.558Z,19.53
2018-10-09T18:20:40.868Z,20.63
2018-10-09T18:23:11.291Z,22.30
2018-10-09T18:25:41.513Z,19.77
2018-10-09T18:28:11.800Z,19.63
2018-10-09T18:30:42.159Z,27.47
2018-10-09T18:33:12.425Z,21.90
2018-10-09T18:35:42.655Z,19.30
2018-10-09T18:38:12.911Z,18.90
2018-10-09T18:40:43.316Z,19.93
2018-10-09T18:43:13.629Z,19.70
2018-10-09T18:45:44.008Z,21.13
2018-10-09T18:48:14.458Z,21.87
2018-10-09T18:50:44.833Z,21.30
2018-10-09T18:53:15.148Z,21.97
2018-10-09T18:55:45.353Z,21.60
2018-10-09T18:58:15.530Z,23.00
2018-10-09T19:00:46.053Z,23.80
2018-10-09T19:03:16.646Z,23.07
2018-10-09T19:05:46.859Z,21.17
2018-10-09T19:08:16.947Z,22.00
2018-10-09T19:10:47.257Z,26.50
2018-10-09T19:13:17.483Z,21.73
2018-10-09T19:15:47.807Z,21.63
2018-10-09T19:18:17.941Z,24.37
2018-10-09T19:20:48.304Z,22.17
2018-10-09T19:23:18.597Z,22.13
2018-10-09T19:25:48.803Z,23.53
2018-10-09T19:28:19.040Z,23.60
2018-10-09T19:30:49.654Z,22.73
2018-10-09T19:33:19.882Z,22.33
2018-10-09T19:35:50.108Z,23.30
2018-10-09T19:38:20.330Z,30.47
2018-10-09T19:40:50.650Z,24.40
2018-10-09T19:43:20.752Z,23.23
2018-10-09T19:45:50.926Z,25.40
2018-10-09T19:48:21.532Z,26.03
2018-10-09T19:50:51.919Z,22.10
2018-10-09T19:53:22.506Z,24.80
2018-10-09T19:55:53.018Z,22.47
2018-10-09T19:58:23.544Z,26.80
2018-10-09T20:00:53.744Z,23.30
2018-10-09T20:03:24.016Z,25.20
2018-10-09T20:05:54.344Z,26.83
2018-10-09T20:08:24.537Z,27.77
2018-10-09T20:10:55.648Z,27.47
2018-10-09T20:13:26.300Z,28.53
2018-10-09T20:15:56.572Z,28.97
2018-10-09T20:18:26.782Z,26.50
2018-10-09T20:20:57.061Z,25.40
2018-10-09T20:23:27.369Z,27.43
2018-10-09T20:25:57.548Z,26.23
2018-10-09T20:28:27.774Z,26.03
2018-10-09T20:30:58.395Z,29.50
2018-10-09T20:33:29.058Z,27.47
2018-10-09T20:35:59.371Z,26.33
2018-10-09T20:38:29.722Z,25.80
2018-10-09T20:40:59.987Z,25.87
2018-10-09T20:43:30.572Z,26.37
2018-10-09T20:46:04.133Z,27.43
2018-10-09T20:48:34.364Z,27.60
2018-10-09T20:51:04.430Z,27.20
2018-10-09T20:53:37.356Z,25.90
2018-10-09T20:56:08.352Z,27.97
2018-10-09T20:58:38.733Z,27.43
2018-10-09T21:01:09.175Z,28.57
2018-10-09T21:03:39.402Z,28.63
2018-10-09T21:06:09.663Z,25.20
2018-10-09T21:08:39.900Z,33.27
2018-10-09T21:11:10.352Z,28.93
2018-10-09T21:13:40.539Z,25.63
2018-10-09T21:16:10.909Z,28.47
2018-10-09T21:18:41.164Z,27.07
2018-10-09T21:21:11.418Z,23.50
2018-10-09T21:23:44.577Z,24.40
2018-10-09T21:26:14.904Z,29.17
2018-10-09T21:28:45.231Z,30.17
2018-10-09T21:31:18.311Z,26.27
2018-10-09T21:33:48.635Z,28.50
2018-10-09T21:36:19.117Z,29.27
2018-10-09T21:38:49.253Z,32.07
2018-10-09T21:41:20.160Z,28.27
2018-10-09T21:43:50.353Z,27.13
2018-10-09T21:46:20.519Z,27.80
2018-10-09T21:48:52.412Z,35.80
2018-10-09T21:51:22.682Z,35.63
2018-10-09T21:53:52.961Z,34.73
2018-10-09T21:56:23.220Z,38.83
2018-10-09T21:58:53.407Z,31.23
2018-10-09T22:01:23.601Z,33.33
2018-10-09T22:03:53.907Z,36.10
2018-10-09T22:06:24.332Z,33.67
2018-10-09T22:08:54.601Z,32.27
2018-10-09T22:11:24.842Z,32.80
2018-10-09T22:13:55.241Z,35.27
2018-10-09T22:16:25.476Z,32.10
2018-10-09T22:18:55.779Z,29.47
2018-10-09T22:21:25.990Z,30.27
2018-10-09T22:23:56.271Z,26.47
2018-10-09T22:26:26.774Z,24.73
2018-10-09T22:28:56.976Z,24.07
2018-10-09T22:31:27.212Z,24.50
2018-10-09T22:33:57.439Z,29.70
2018-10-09T22:36:27.696Z,24.80
2018-10-09T22:38:57.866Z,27.57
2018-10-09T22:41:28.090Z,25.27
2018-10-09T22:43:58.315Z,27.27
2018-10-09T22:46:28.488Z,26.63
2018-10-09T22:48:58.658Z,29.60
2018-10-09T22:51:28.834Z,25.57
2018-10-09T22:53:59.002Z,27.00
2018-10-09T22:56:29.202Z,26.60
2018-10-09T22:58:59.378Z,26.43
2018-10-09T23:01:29.610Z,23.63
2018-10-09T23:03:59.845Z,24.70
2018-10-09T23:06:30.062Z,24.20
2018-10-09T23:09:00.366Z,23.53
2018-10-09T23:11:31.062Z,25.47
2018-10-09T23:14:01.644Z,27.80
2018-10-09T23:16:32.102Z,27.97
2018-10-09T23:19:02.334Z,27.33
2018-10-09T23:21:32.504Z,32.43
2018-10-09T23:24:02.764Z,31.03
2018-10-09T23:26:33.090Z,28.97
2018-10-09T23:29:03.739Z,27.30
2018-10-09T23:31:33.966Z,27.63
2018-10-09T23:34:04.303Z,26.60
2018-10-09T23:36:34.424Z,25.57
2018-10-09T23:39:06.274Z,23.60
2018-10-09T23:41:36.570Z,23.83
2018-10-09T23:44:06.844Z,24.93
2018-10-09T23:46:36.997Z,22.87
2018-10-09T23:49:09.159Z,23.83
2018-10-09T23:51:39.417Z,23.83
2018-10-09T23:54:09.657Z,24.83
2018-10-09T23:56:43.024Z,27.10
2018-10-09T23:59:13.343Z,25.17
